Startpagina
METAR-TAF:

METAR-TAF

Vliegvelden :

Aeropuerto Antonio Roldán Betancourt

Apartadó, Colombia

breedte: 07-49N, lengte: 076-42W, hoogte: 20 m

Actueel weer

Dit bericht is 57 minuten geleden gemaakt, om 13:00 UTC
Weinig wind
Temperatuur 23°C
Vochtigheid 94%
Druk 1013 hPa
Zicht 10 km of meer
Verspreide wolken op 1000 ft
Gebroken wolken op 9000 ft

METAR: SKLC 231300Z 00000KT 9999 SCT010 BKN090 23/22 A2991

Tijdstip: 08:57 (13:57 UTC)


TAF: ontbreekt

Waarnemingen en weersverwachtingen van meer dan 4000 vliegvelden (METAR en TAF).

De beschikbare stations zijn de gele en rode punten op de kaart.

Ga met uw muis naar het station om de naam te zien.

Klik dan om waarnemingen en weersverwachtingen te zien.

kaart wijzigen: klik op de groene knoppen met een zwart kruis om in te zoomen, op de groene knop met een streepje om uit te zoomen of op de groene pijlen voor aangrenzende kaarten.


METAR-TAF: